Time;durP1;ratioP1;P1;durP2;ratioP2;P2;SDS_P1;SDS_P2;PMS_P1;PMS_P2;Temp;Humidity;BMP_temperature;BMP_pressure;BME280_temperature;BME280_humidity;BME280_pressure;Samples;Min_cycle;Max_cycle;Signal;HPM_P1;HPM_P2
2024/02/17 00:00:25;;;;;;;74.30;17.37;;;;;;;;;;5072942;28;20457;-67
2024/02/17 00:02:52;;;;;;;70.67;18.40;;;;;;;;;;5073241;28;20529;-66
2024/02/17 00:05:19;;;;;;;75.47;19.47;;;;;;;;;;5073145;28;20588;-66
2024/02/17 00:07:47;;;;;;;74.93;19.70;;;;;;;;;;5073052;28;20455;-66
2024/02/17 00:10:15;;;;;;;74.10;16.43;;;;;;;;;;5072877;28;20964;-66
2024/02/17 00:12:42;;;;;;;76.20;19.37;;;;;;;;;;5072501;28;20577;-66
2024/02/17 00:15:09;;;;;;;74.70;17.77;;;;;;;;;;5072713;28;20545;-66
2024/02/17 00:17:37;;;;;;;72.33;18.03;;;;;;;;;;5072670;28;20449;-66
2024/02/17 00:20:05;;;;;;;75.70;18.20;;;;;;;;;;5072722;28;20449;-66
2024/02/17 00:22:32;;;;;;;71.90;17.70;;;;;;;;;;5072489;28;20437;-66
2024/02/17 00:24:59;;;;;;;75.97;19.83;;;;;;;;;;5072601;28;20467;-66
2024/02/17 00:27:28;;;;;;;72.63;19.07;;;;;;;;;;5072387;28;20552;-66
2024/02/17 00:29:55;;;;;;;77.50;21.03;;;;;;;;;;5072741;28;20444;-66
2024/02/17 00:32:22;;;;;;;76.00;19.53;;;;;;;;;;5072131;28;21096;-66
2024/02/17 00:34:49;;;;;;;73.10;20.17;;;;;;;;;;5072450;28;20565;-66
2024/02/17 00:37:16;;;;;;;75.40;18.73;;;;;;;;;;5072339;28;20449;-66
2024/02/17 00:39:43;;;;;;;72.33;19.10;;;;;;;;;;5072218;28;20457;-66
2024/02/17 00:42:10;;;;;;;72.43;18.90;;;;;;;;;;5071904;28;20456;-66
2024/02/17 00:44:40;;;;;;;76.20;20.10;;;;;;;;;;5072182;28;20446;-66
2024/02/17 00:47:07;;;;;;;74.60;19.30;;;;;;;;;;5072328;28;20822;-66
2024/02/17 00:49:34;;;;;;;79.50;20.90;;;;;;;;;;5072271;28;20840;-66
2024/02/17 00:52:01;;;;;;;77.13;20.30;;;;;;;;;;5072051;28;20854;-67
2024/02/17 00:54:28;;;;;;;72.30;18.90;;;;;;;;;;5071712;28;20497;-67
2024/02/17 00:56:56;;;;;;;74.87;19.77;;;;;;;;;;5072367;28;20507;-67
2024/02/17 00:59:23;;;;;;;73.80;18.73;;;;;;;;;;5071984;28;20964;-67
2024/02/17 01:01:51;;;;;;;70.43;17.80;;;;;;;;;;5063289;28;21185;-67
2024/02/17 01:04:19;;;;;;;74.00;19.43;;;;;;;;;;5072365;28;20446;-67
2024/02/17 01:06:46;;;;;;;79.07;19.97;;;;;;;;;;5071725;28;20470;-67
2024/02/17 01:09:13;;;;;;;74.43;18.63;;;;;;;;;;5071735;28;20439;-67
2024/02/17 01:11:40;;;;;;;74.00;20.97;;;;;;;;;;5071718;28;20865;-66
2024/02/17 01:14:08;;;;;;;73.10;19.07;;;;;;;;;;5071681;28;21083;-67
2024/02/17 01:16:35;;;;;;;70.60;18.67;;;;;;;;;;5071519;28;20499;-67
2024/02/17 01:19:03;;;;;;;74.10;20.57;;;;;;;;;;5071768;28;20878;-67
2024/02/17 01:21:33;;;;;;;73.07;19.00;;;;;;;;;;5071416;28;20485;-66
2024/02/17 01:24:00;;;;;;;69.23;17.00;;;;;;;;;;5071634;28;20504;-67
2024/02/17 01:26:28;;;;;;;69.10;16.33;;;;;;;;;;5071978;28;20886;-67
2024/02/17 01:28:55;;;;;;;69.17;15.13;;;;;;;;;;5071600;28;20543;-67
2024/02/17 01:31:22;;;;;;;66.20;13.73;;;;;;;;;;5071556;28;20939;-67
2024/02/17 01:33:51;;;;;;;71.80;13.93;;;;;;;;;;5063138;28;20490;-66
2024/02/17 01:36:21;;;;;;;68.23;14.63;;;;;;;;;;5071487;28;20870;-67
2024/02/17 01:38:48;;;;;;;64.77;12.20;;;;;;;;;;5071756;28;20511;-67
2024/02/17 01:41:15;;;;;;;65.30;11.83;;;;;;;;;;5071530;28;20451;-67
2024/02/17 01:43:42;;;;;;;63.73;11.47;;;;;;;;;;5071130;28;20448;-68
2024/02/17 01:46:10;;;;;;;64.10;11.67;;;;;;;;;;5071504;28;20557;-67
2024/02/17 01:48:37;;;;;;;62.10;10.13;;;;;;;;;;5071296;28;20553;-67
2024/02/17 01:51:05;;;;;;;66.47;10.83;;;;;;;;;;5071388;28;20460;-67
2024/02/17 01:53:33;;;;;;;62.20;10.10;;;;;;;;;;5070992;28;21069;-66
2024/02/17 01:56:01;;;;;;;61.97;9.63;;;;;;;;;;5071461;28;20473;-67
2024/02/17 01:58:28;;;;;;;63.63;10.33;;;;;;;;;;5071390;28;20442;-67
2024/02/17 02:00:55;;;;;;;65.20;9.40;;;;;;;;;;5071452;28;20450;-67
2024/02/17 02:03:22;;;;;;;62.67;8.93;;;;;;;;;;5071641;28;20446;-67
2024/02/17 02:05:49;;;;;;;61.00;7.90;;;;;;;;;;5071413;28;20461;-67
2024/02/17 02:08:16;;;;;;;59.53;7.10;;;;;;;;;;5071514;28;20939;-67
2024/02/17 02:10:45;;;;;;;60.77;7.67;;;;;;;;;;5071272;28;20458;-67
2024/02/17 02:13:12;;;;;;;59.47;7.17;;;;;;;;;;5073947;28;20984;-67
2024/02/17 02:15:43;;;;;;;60.70;7.90;;;;;;;;;;5075479;28;20556;-67
2024/02/17 02:18:10;;;;;;;61.47;6.80;;;;;;;;;;5063495;28;20443;-66
2024/02/17 02:20:37;;;;;;;59.97;7.20;;;;;;;;;;5054998;28;20973;-66
2024/02/17 02:23:05;;;;;;;59.30;5.90;;;;;;;;;;5055024;28;20473;-66
2024/02/17 02:25:33;;;;;;;59.60;6.10;;;;;;;;;;5054891;28;20701;-66
2024/02/17 02:28:01;;;;;;;58.80;6.03;;;;;;;;;;5055081;28;20998;-66
2024/02/17 02:30:29;;;;;;;58.70;6.37;;;;;;;;;;5054100;28;21025;-66
2024/02/17 02:32:59;;;;;;;58.17;5.77;;;;;;;;;;5054569;28;20979;-66
2024/02/17 02:35:26;;;;;;;58.60;5.80;;;;;;;;;;5054590;28;20479;-66
2024/02/17 02:37:53;;;;;;;58.67;6.03;;;;;;;;;;5054884;28;20988;-66
2024/02/17 02:40:20;;;;;;;60.03;6.33;;;;;;;;;;5054663;28;20462;-66
2024/02/17 02:42:47;;;;;;;62.20;6.20;;;;;;;;;;5054761;28;20484;-66
2024/02/17 02:45:16;;;;;;;59.90;7.10;;;;;;;;;;5054714;28;20576;-66
2024/02/17 02:47:43;;;;;;;64.57;8.07;;;;;;;;;;5054652;28;20451;-66
2024/02/17 02:50:11;;;;;;;60.27;7.03;;;;;;;;;;5054742;28;20791;-66
2024/02/17 02:52:38;;;;;;;63.70;7.53;;;;;;;;;;5054136;28;20482;-66
2024/02/17 02:55:06;;;;;;;61.80;8.07;;;;;;;;;;5054494;28;20497;-66
2024/02/17 02:57:33;;;;;;;60.47;7.20;;;;;;;;;;5054477;28;20487;-66
2024/02/17 03:00:00;;;;;;;61.80;9.13;;;;;;;;;;5054525;28;20539;-66
2024/02/17 03:02:29;;;;;;;61.60;8.13;;;;;;;;;;5054273;28;20554;-66
2024/02/17 03:04:57;;;;;;;63.53;10.23;;;;;;;;;;5066251;28;20459;-66
2024/02/17 03:07:25;;;;;;;64.43;9.33;;;;;;;;;;5073999;28;20447;-66
2024/02/17 03:09:52;;;;;;;63.37;9.80;;;;;;;;;;5074472;28;20473;-66
2024/02/17 03:12:19;;;;;;;64.33;10.80;;;;;;;;;;5074112;28;20547;-66
2024/02/17 03:14:46;;;;;;;64.70;9.70;;;;;;;;;;5074297;28;20490;-66
2024/02/17 03:17:14;;;;;;;63.30;9.73;;;;;;;;;;5073992;28;21004;-66
2024/02/17 03:19:42;;;;;;;65.00;10.50;;;;;;;;;;5073916;28;20446;-66
2024/02/17 03:22:09;;;;;;;66.37;9.10;;;;;;;;;;5073776;28;20485;-66
2024/02/17 03:24:36;;;;;;;61.77;9.70;;;;;;;;;;5073375;28;20478;-67
2024/02/17 03:27:05;;;;;;;68.43;10.67;;;;;;;;;;5073937;28;20538;-66
2024/02/17 03:29:32;;;;;;;64.17;9.70;;;;;;;;;;5073540;28;20450;-67
2024/02/17 03:31:59;;;;;;;64.97;9.40;;;;;;;;;;5073551;28;20537;-67
2024/02/17 03:34:27;;;;;;;65.17;9.97;;;;;;;;;;5073312;28;20477;-67
2024/02/17 03:36:55;;;;;;;64.37;10.87;;;;;;;;;;5073463;28;20533;-67
2024/02/17 03:39:22;;;;;;;64.10;10.27;;;;;;;;;;5073785;28;20984;-66
2024/02/17 03:41:51;;;;;;;66.50;10.93;;;;;;;;;;5073548;28;20442;-67
2024/02/17 03:44:18;;;;;;;64.77;10.60;;;;;;;;;;5073543;28;20504;-67
2024/02/17 03:46:45;;;;;;;65.30;10.97;;;;;;;;;;5073383;28;20468;-67
2024/02/17 03:49:13;;;;;;;67.67;12.30;;;;;;;;;;5073274;28;20539;-66
2024/02/17 03:51:40;;;;;;;66.70;12.37;;;;;;;;;;5072973;28;20447;-66
2024/02/17 03:54:08;;;;;;;66.20;11.40;;;;;;;;;;5073320;28;20484;-67
2024/02/17 03:56:35;;;;;;;65.70;11.33;;;;;;;;;;5073240;28;20469;-66
2024/02/17 03:59:02;;;;;;;66.17;11.80;;;;;;;;;;5073401;28;20537;-67
2024/02/17 04:01:35;;;;;;;67.30;11.17;;;;;;;;;;5073214;28;20525;-67
2024/02/17 04:04:03;;;;;;;69.63;12.83;;;;;;;;;;5065613;28;20530;-67
2024/02/17 04:06:30;;;;;;;69.03;12.80;;;;;;;;;;5073151;28;20472;-67
2024/02/17 04:08:57;;;;;;;70.20;13.40;;;;;;;;;;5073167;28;20457;-67
2024/02/17 04:11:26;;;;;;;74.90;14.37;;;;;;;;;;5072979;28;20453;-66
2024/02/17 04:13:53;;;;;;;70.50;14.43;;;;;;;;;;5072471;28;21012;-66
2024/02/17 04:16:20;;;;;;;75.93;14.43;;;;;;;;;;5072846;28;20997;-66
2024/02/17 04:18:47;;;;;;;73.20;14.70;;;;;;;;;;5072968;28;20815;-66
2024/02/17 04:21:14;;;;;;;68.70;13.33;;;;;;;;;;5072689;28;20528;-67
2024/02/17 04:23:42;;;;;;;72.03;13.33;;;;;;;;;;5072510;28;20481;-66
2024/02/17 04:26:11;;;;;;;70.37;13.10;;;;;;;;;;5072639;28;20547;-67
2024/02/17 04:28:40;;;;;;;70.07;14.47;;;;;;;;;;5072460;28;20980;-67
2024/02/17 04:31:07;;;;;;;72.80;14.47;;;;;;;;;;5072689;28;20457;-67
2024/02/17 04:33:36;;;;;;;69.17;12.97;;;;;;;;;;5072240;28;20859;-67
2024/02/17 04:36:04;;;;;;;70.17;14.20;;;;;;;;;;5071679;28;20556;-67
2024/02/17 04:38:31;;;;;;;68.90;13.20;;;;;;;;;;5072424;28;20443;-67
2024/02/17 04:40:58;;;;;;;70.37;13.93;;;;;;;;;;5072798;28;20523;-67
2024/02/17 04:43:25;;;;;;;70.63;12.93;;;;;;;;;;5072155;28;20449;-67
2024/02/17 04:45:54;;;;;;;69.30;13.20;;;;;;;;;;5072284;28;20493;-66
2024/02/17 04:48:21;;;;;;;72.90;14.27;;;;;;;;;;5072110;28;20449;-66
2024/02/17 04:50:48;;;;;;;70.70;13.90;;;;;;;;;;5072063;28;20456;-67
2024/02/17 04:53:15;;;;;;;69.07;12.93;;;;;;;;;;5071697;28;20453;-69
2024/02/17 04:55:42;;;;;;;72.10;15.33;;;;;;;;;;5071788;28;20485;-67
2024/02/17 04:58:16;;;;;;;74.50;16.67;;;;;;;;;;5072221;28;20477;-67
2024/02/17 05:00:44;;;;;;;73.27;15.77;;;;;;;;;;5072141;28;20449;-67
2024/02/17 05:03:14;;;;;;;75.00;16.97;;;;;;;;;;5071996;28;20458;-66
2024/02/17 05:05:41;;;;;;;75.60;18.07;;;;;;;;;;5071029;28;20476;-67
2024/02/17 05:08:09;;;;;;;76.30;17.50;;;;;;;;;;5071700;28;20454;-67
2024/02/17 05:10:36;;;;;;;77.37;17.60;;;;;;;;;;5071995;28;20461;-66
2024/02/17 05:13:03;;;;;;;74.80;16.27;;;;;;;;;;5072053;28;20505;-67
2024/02/17 05:15:30;;;;;;;76.50;18.43;;;;;;;;;;5071609;28;20486;-67
2024/02/17 05:17:57;;;;;;;78.97;19.27;;;;;;;;;;5071770;28;20461;-67
2024/02/17 05:20:26;;;;;;;79.33;17.57;;;;;;;;;;5071655;28;20455;-67
2024/02/17 05:22:53;;;;;;;78.37;18.00;;;;;;;;;;5071219;28;20544;-67
2024/02/17 05:25:20;;;;;;;75.87;17.07;;;;;;;;;;5071901;28;20556;-67
2024/02/17 05:27:47;;;;;;;79.70;18.93;;;;;;;;;;5071510;28;20445;-67
2024/02/17 05:30:17;;;;;;;78.90;18.73;;;;;;;;;;5071651;28;20457;-67
2024/02/17 05:32:44;;;;;;;78.00;18.43;;;;;;;;;;5071488;28;20554;-66
2024/02/17 05:35:11;;;;;;;77.37;18.83;;;;;;;;;;5071225;28;20817;-67
2024/02/17 05:37:40;;;;;;;77.97;17.50;;;;;;;;;;5071631;28;20451;-66
2024/02/17 05:40:07;;;;;;;83.53;19.80;;;;;;;;;;5071737;28;20530;-67
2024/02/17 05:42:35;;;;;;;80.17;18.47;;;;;;;;;;5071293;28;20934;-66
2024/02/17 05:45:02;;;;;;;88.33;19.40;;;;;;;;;;5071414;28;20954;-67
2024/02/17 05:47:29;;;;;;;80.80;19.07;;;;;;;;;;5071122;28;20532;-67
2024/02/17 05:49:57;;;;;;;78.43;18.00;;;;;;;;;;5071260;28;20441;-66
2024/02/17 05:52:24;;;;;;;84.23;19.67;;;;;;;;;;5071478;28;20843;-66
2024/02/17 05:54:52;;;;;;;80.60;19.37;;;;;;;;;;5071293;28;20496;-66
2024/02/17 05:57:19;;;;;;;85.13;20.00;;;;;;;;;;5071839;28;20536;-67
2024/02/17 05:59:46;;;;;;;85.40;21.13;;;;;;;;;;5071330;28;20453;-67
2024/02/17 06:02:13;;;;;;;80.67;19.70;;;;;;;;;;5071125;28;20449;-67
2024/02/17 06:04:41;;;;;;;81.60;18.80;;;;;;;;;;5071046;28;20440;-67
2024/02/17 06:07:08;;;;;;;86.70;20.20;;;;;;;;;;5071224;28;20923;-66
2024/02/17 06:09:35;;;;;;;84.70;18.90;;;;;;;;;;5071410;28;20823;-67
2024/02/17 06:12:03;;;;;;;82.57;20.20;;;;;;;;;;5071368;28;20447;-67
2024/02/17 06:14:30;;;;;;;83.37;20.33;;;;;;;;;;5071009;28;20493;-66
2024/02/17 06:16:57;;;;;;;83.80;20.93;;;;;;;;;;5071034;28;20448;-66
2024/02/17 06:22:09;;;;;;;82.77;20.80;;;;;;;;;;5071067;28;20936;-66
2024/02/17 06:24:36;;;;;;;81.70;20.17;;;;;;;;;;5071046;28;20821;-66
2024/02/17 06:27:05;;;;;;;84.57;20.30;;;;;;;;;;5070954;28;20441;-66
2024/02/17 06:29:32;;;;;;;90.73;21.57;;;;;;;;;;5070985;28;20524;-66
2024/02/17 06:31:59;;;;;;;83.77;20.53;;;;;;;;;;5071006;28;20449;-66
2024/02/17 06:34:26;;;;;;;83.93;20.43;;;;;;;;;;5070918;28;20485;-66
2024/02/17 06:36:53;;;;;;;90.90;19.97;;;;;;;;;;5070886;28;20544;-67
2024/02/17 06:39:20;;;;;;;85.20;21.43;;;;;;;;;;5071017;28;20926;-66
2024/02/17 06:41:47;;;;;;;86.83;20.80;;;;;;;;;;5070816;28;20932;-67
2024/02/17 06:44:16;;;;;;;85.23;20.97;;;;;;;;;;5071266;28;20963;-67
2024/02/17 06:46:46;;;;;;;86.67;21.53;;;;;;;;;;5070634;28;20476;-67
2024/02/17 06:49:13;;;;;;;86.83;21.90;;;;;;;;;;5070985;28;20826;-67
2024/02/17 06:51:40;;;;;;;89.97;21.37;;;;;;;;;;5070850;28;20452;-67
2024/02/17 06:54:07;;;;;;;87.87;21.47;;;;;;;;;;5063526;28;20436;-67
2024/02/17 06:56:34;;;;;;;92.07;23.70;;;;;;;;;;5070801;28;20472;-67
2024/02/17 06:59:01;;;;;;;90.90;22.63;;;;;;;;;;5071753;28;20455;-67
2024/02/17 07:01:30;;;;;;;96.50;23.37;;;;;;;;;;5074365;28;20455;-67
2024/02/17 07:03:57;;;;;;;87.13;22.03;;;;;;;;;;5074069;28;20480;-67
2024/02/17 07:06:24;;;;;;;88.50;21.20;;;;;;;;;;5074118;28;20968;-67
2024/02/17 07:08:51;;;;;;;88.97;22.63;;;;;;;;;;5074109;28;20450;-66
2024/02/17 07:11:19;;;;;;;91.23;21.70;;;;;;;;;;5074430;28;20548;-67
2024/02/17 07:13:46;;;;;;;88.63;22.03;;;;;;;;;;5074087;28;20824;-67
2024/02/17 07:16:13;;;;;;;90.60;23.27;;;;;;;;;;5074038;28;20485;-66
2024/02/17 07:18:43;;;;;;;90.20;23.67;;;;;;;;;;5065931;28;20456;-67
2024/02/17 07:21:10;;;;;;;83.23;19.33;;;;;;;;;;5066340;28;20544;-67
2024/02/17 07:23:38;;;;;;;88.00;22.57;;;;;;;;;;5073674;28;20481;-66
2024/02/17 07:26:05;;;;;;;85.03;21.23;;;;;;;;;;5074029;28;20558;-67
2024/02/17 07:28:36;;;;;;;85.30;19.57;;;;;;;;;;5074052;28;20449;-66
2024/02/17 07:31:03;;;;;;;91.37;21.67;;;;;;;;;;5074014;28;20450;-67
2024/02/17 07:33:30;;;;;;;88.30;20.07;;;;;;;;;;5073580;28;20446;-67
2024/02/17 07:35:59;;;;;;;86.00;19.93;;;;;;;;;;5073517;28;20515;-67
2024/02/17 07:38:26;;;;;;;90.90;22.80;;;;;;;;;;5073393;28;21066;-66
2024/02/17 07:40:53;;;;;;;93.87;22.00;;;;;;;;;;5073795;28;20843;-67
2024/02/17 07:43:20;;;;;;;90.27;22.60;;;;;;;;;;5073627;28;20446;-66
2024/02/17 07:45:48;;;;;;;89.33;22.10;;;;;;;;;;5073405;28;20473;-66
2024/02/17 07:48:15;;;;;;;98.73;24.33;;;;;;;;;;5073769;28;20804;-67
2024/02/17 07:50:43;;;;;;;88.80;20.77;;;;;;;;;;5073344;28;20449;-66
2024/02/17 07:53:11;;;;;;;92.20;22.00;;;;;;;;;;5073027;28;20446;-66
2024/02/17 07:55:38;;;;;;;87.90;20.73;;;;;;;;;;5073169;28;20485;-66
2024/02/17 07:58:08;;;;;;;82.47;20.10;;;;;;;;;;5073352;28;20826;-66
2024/02/17 08:00:35;;;;;;;89.40;21.67;;;;;;;;;;5073219;28;20461;-66
2024/02/17 08:03:02;;;;;;;92.53;20.10;;;;;;;;;;5072894;28;20457;-66
2024/02/17 08:05:29;;;;;;;87.37;20.77;;;;;;;;;;5073097;28;20997;-66
2024/02/17 08:07:56;;;;;;;89.20;22.40;;;;;;;;;;5073249;28;20464;-66
2024/02/17 08:10:25;;;;;;;88.87;22.37;;;;;;;;;;5073031;28;20445;-66
2024/02/17 08:12:52;;;;;;;86.67;21.33;;;;;;;;;;5073006;28;20520;-66
2024/02/17 08:15:19;;;;;;;85.27;21.00;;;;;;;;;;5072874;28;20852;-67
2024/02/17 08:17:46;;;;;;;82.27;20.40;;;;;;;;;;5072647;28;20500;-66
2024/02/17 08:20:14;;;;;;;98.57;27.10;;;;;;;;;;5072874;28;20536;-67
2024/02/17 08:22:41;;;;;;;93.07;26.03;;;;;;;;;;5072808;28;20533;-66
2024/02/17 08:25:09;;;;;;;86.33;23.60;;;;;;;;;;5072926;28;20560;-67
2024/02/17 08:27:38;;;;;;;98.80;30.10;;;;;;;;;;5072686;28;20446;-67
2024/02/17 08:30:05;;;;;;;90.10;25.03;;;;;;;;;;5073333;28;20954;-69
2024/02/17 08:32:33;;;;;;;81.67;20.07;;;;;;;;;;5075963;28;20856;-70
2024/02/17 08:35:00;;;;;;;79.80;19.03;;;;;;;;;;5075756;28;20486;-70
2024/02/17 08:37:27;;;;;;;75.47;18.30;;;;;;;;;;5070418;28;20535;-70
2024/02/17 08:39:54;;;;;;;72.60;16.60;;;;;;;;;;5055841;28;20521;-70
2024/02/17 08:42:21;;;;;;;74.20;16.60;;;;;;;;;;5055500;28;20455;-69
2024/02/17 08:44:53;;;;;;;71.93;15.43;;;;;;;;;;5055869;28;20478;-71
2024/02/17 08:47:21;;;;;;;69.80;14.90;;;;;;;;;;5056082;28;20466;-70
2024/02/17 08:49:48;;;;;;;68.77;14.00;;;;;;;;;;5056253;28;20879;-70
2024/02/17 08:52:15;;;;;;;67.80;12.87;;;;;;;;;;5055991;28;20453;-70
2024/02/17 08:54:42;;;;;;;67.30;13.57;;;;;;;;;;5055324;28;20869;-69
2024/02/17 08:57:09;;;;;;;65.27;12.80;;;;;;;;;;5055808;28;20451;-69
2024/02/17 08:59:38;;;;;;;67.70;11.70;;;;;;;;;;5055373;28;20456;-70
2024/02/17 09:02:06;;;;;;;68.80;11.90;;;;;;;;;;5055511;28;20513;-69
2024/02/17 09:04:33;;;;;;;68.13;12.50;;;;;;;;;;5055024;28;20824;-71
2024/02/17 09:07:01;;;;;;;67.27;11.70;;;;;;;;;;5055611;28;20454;-70
2024/02/17 09:09:29;;;;;;;65.67;11.10;;;;;;;;;;5055071;28;20558;-70
2024/02/17 09:11:56;;;;;;;66.17;10.90;;;;;;;;;;5055169;28;20954;-70
2024/02/17 09:14:23;;;;;;;68.97;11.43;;;;;;;;;;5055123;28;20530;-71
2024/02/17 09:16:50;;;;;;;67.07;13.53;;;;;;;;;;5054848;28;20491;-71
2024/02/17 09:19:19;;;;;;;66.30;11.60;;;;;;;;;;5055105;28;20453;-71
2024/02/17 09:21:46;;;;;;;70.67;13.00;;;;;;;;;;5053880;28;20452;-70
2024/02/17 09:24:18;;;;;;;65.50;11.40;;;;;;;;;;5054608;28;20451;-70
2024/02/17 09:26:45;;;;;;;67.33;12.40;;;;;;;;;;5054876;28;20467;-71
2024/02/17 09:29:13;;;;;;;69.80;12.60;;;;;;;;;;5074097;28;20451;-70
2024/02/17 09:31:40;;;;;;;66.50;12.00;;;;;;;;;;5074489;28;20531;-70
2024/02/17 09:34:07;;;;;;;69.57;14.60;;;;;;;;;;5074188;28;20954;-70
2024/02/17 09:36:35;;;;;;;70.40;13.53;;;;;;;;;;5074041;28;20488;-69
2024/02/17 09:39:03;;;;;;;67.03;12.87;;;;;;;;;;5074273;28;20538;-70
2024/02/17 09:41:30;;;;;;;74.60;17.30;;;;;;;;;;5074189;28;20456;-71
2024/02/17 09:43:57;;;;;;;70.80;12.37;;;;;;;;;;5073987;28;20545;-70
2024/02/17 09:46:27;;;;;;;67.47;13.63;;;;;;;;;;5074128;28;21066;-70
2024/02/17 09:48:54;;;;;;;66.87;12.03;;;;;;;;;;5074026;28;20455;-70
2024/02/17 09:51:24;;;;;;;67.30;11.90;;;;;;;;;;5074192;28;20824;-70
2024/02/17 09:53:53;;;;;;;66.20;12.07;;;;;;;;;;5073716;28;20889;-70
2024/02/17 09:56:21;;;;;;;66.37;11.10;;;;;;;;;;5074107;28;20480;-72
2024/02/17 09:58:48;;;;;;;67.50;12.40;;;;;;;;;;5073466;28;20456;-70
2024/02/17 10:01:15;;;;;;;64.37;11.00;;;;;;;;;;5073308;28;20535;-70
2024/02/17 10:03:42;;;;;;;65.77;11.70;;;;;;;;;;5073114;28;20458;-71
2024/02/17 10:06:13;;;;;;;66.20;11.30;;;;;;;;;;5072497;28;20470;-70
2024/02/17 10:08:40;;;;;;;68.57;11.33;;;;;;;;;;5072635;28;21059;-71
2024/02/17 10:11:10;;;;;;;67.70;11.73;;;;;;;;;;5072893;28;20440;-70
2024/02/17 10:13:37;;;;;;;64.00;10.07;;;;;;;;;;5072134;28;20498;-70
2024/02/17 10:16:08;;;;;;;66.40;12.47;;;;;;;;;;5072554;28;20720;-71
2024/02/17 10:18:35;;;;;;;66.20;11.23;;;;;;;;;;5072217;28;20470;-71
2024/02/17 10:21:02;;;;;;;70.63;11.40;;;;;;;;;;5071659;28;20447;-71
2024/02/17 10:23:29;;;;;;;66.37;12.10;;;;;;;;;;5072154;28;20440;-70
2024/02/17 10:25:58;;;;;;;69.20;11.87;;;;;;;;;;5073110;28;20456;-70
2024/02/17 10:28:27;;;;;;;67.23;11.17;;;;;;;;;;5072797;28;20448;-70
2024/02/17 10:30:56;;;;;;;64.33;11.07;;;;;;;;;;5072844;28;20448;-70
2024/02/17 10:33:23;;;;;;;64.37;10.40;;;;;;;;;;5073261;28;20483;-70
2024/02/17 10:35:51;;;;;;;62.30;10.37;;;;;;;;;;5068514;28;20499;-71
2024/02/17 10:38:18;;;;;;;65.37;10.87;;;;;;;;;;5056217;28;20448;-71
2024/02/17 10:40:45;;;;;;;65.87;11.27;;;;;;;;;;5056681;28;20463;-70
2024/02/17 10:43:13;;;;;;;64.67;11.10;;;;;;;;;;5056400;28;20441;-71
2024/02/17 10:45:41;;;;;;;63.90;10.70;;;;;;;;;;5055711;28;20903;-71
2024/02/17 10:48:11;;;;;;;65.87;11.70;;;;;;;;;;5056104;28;20450;-71
2024/02/17 10:50:41;;;;;;;63.90;9.50;;;;;;;;;;5056444;28;20471;-71
2024/02/17 10:53:11;;;;;;;63.07;9.70;;;;;;;;;;5066380;28;20448;-70
2024/02/17 10:55:40;;;;;;;65.87;10.53;;;;;;;;;;5075246;28;20579;-70
2024/02/17 10:58:10;;;;;;;65.83;10.37;;;;;;;;;;5075062;28;20454;-70
2024/02/17 11:00:39;;;;;;;65.80;10.80;;;;;;;;;;5075366;28;20828;-71
2024/02/17 11:03:08;;;;;;;64.10;10.77;;;;;;;;;;5075563;28;20450;-71
2024/02/17 11:05:37;;;;;;;64.93;10.30;;;;;;;;;;5075593;28;21019;-71
2024/02/17 11:08:04;;;;;;;63.87;10.23;;;;;;;;;;5076102;28;20454;-71
2024/02/17 11:10:32;;;;;;;61.53;8.73;;;;;;;;;;5075516;28;20450;-70
2024/02/17 11:13:01;;;;;;;62.17;9.10;;;;;;;;;;5075788;28;20789;-70
2024/02/17 11:15:28;;;;;;;64.70;9.63;;;;;;;;;;5075166;28;20467;-70
2024/02/17 11:17:57;;;;;;;61.33;8.90;;;;;;;;;;5075092;28;20903;-71
2024/02/17 11:20:26;;;;;;;62.00;8.37;;;;;;;;;;5074671;28;20869;-71
2024/02/17 11:22:54;;;;;;;62.10;9.27;;;;;;;;;;5074606;28;20448;-71
2024/02/17 11:25:33;;;;;;;61.67;9.60;;;;;;;;;;5074373;28;20517;-71
2024/02/17 11:28:01;;;;;;;61.50;8.90;;;;;;;;;;5074789;28;20474;-71
2024/02/17 11:30:28;;;;;;;61.37;9.23;;;;;;;;;;5074864;28;20634;-71
2024/02/17 11:32:58;;;;;;;62.03;9.47;;;;;;;;;;5074439;28;20550;-71
2024/02/17 11:35:27;;;;;;;61.30;8.17;;;;;;;;;;5074209;28;20477;-71
2024/02/17 11:37:55;;;;;;;60.93;8.00;;;;;;;;;;5073976;28;20514;-70
2024/02/17 11:40:23;;;;;;;59.90;7.73;;;;;;;;;;5074583;28;20448;-71
2024/02/17 11:42:54;;;;;;;62.73;8.60;;;;;;;;;;5074355;28;20439;-71
2024/02/17 11:45:21;;;;;;;61.73;9.30;;;;;;;;;;5073578;28;20477;-71
2024/02/17 11:47:49;;;;;;;60.87;7.03;;;;;;;;;;5074716;28;20443;-71
2024/02/17 11:50:18;;;;;;;61.03;7.83;;;;;;;;;;5074178;28;20941;-71
2024/02/17 11:52:46;;;;;;;63.33;10.20;;;;;;;;;;5074446;28;20536;-71
2024/02/17 11:55:15;;;;;;;58.47;6.03;;;;;;;;;;5074602;28;20501;-71
2024/02/17 11:57:43;;;;;;;58.90;6.87;;;;;;;;;;5074158;28;20529;-71
2024/02/17 12:00:11;;;;;;;59.77;6.20;;;;;;;;;;5074271;28;20448;-72
2024/02/17 12:02:40;;;;;;;61.97;6.87;;;;;;;;;;5073938;28;20452;-71
2024/02/17 12:05:07;;;;;;;59.17;6.83;;;;;;;;;;5074358;28;20465;-71
2024/02/17 12:07:34;;;;;;;59.00;6.70;;;;;;;;;;5074423;28;20447;-71
2024/02/17 12:10:03;;;;;;;59.30;6.33;;;;;;;;;;5074101;28;21008;-71
2024/02/17 12:12:31;;;;;;;58.50;6.30;;;;;;;;;;5074213;28;20448;-72
2024/02/17 12:14:58;;;;;;;59.00;5.27;;;;;;;;;;5074976;28;20466;-71
2024/02/17 12:17:25;;;;;;;58.50;5.50;;;;;;;;;;5074666;28;20490;-72
2024/02/17 12:19:52;;;;;;;59.07;5.97;;;;;;;;;;5074455;28;20455;-70
2024/02/17 12:22:20;;;;;;;60.30;6.47;;;;;;;;;;5073946;28;20508;-71
2024/02/17 12:24:47;;;;;;;58.67;5.77;;;;;;;;;;5074124;28;20472;-71
2024/02/17 12:27:15;;;;;;;58.80;6.10;;;;;;;;;;5074673;28;20817;-71
2024/02/17 12:30:00;;;;;;;58.13;5.33;;;;;;;;;;5074309;28;20966;-70
2024/02/17 12:32:28;;;;;;;59.63;5.70;;;;;;;;;;5073654;28;20516;-70
2024/02/17 12:34:55;;;;;;;61.20;6.40;;;;;;;;;;5072946;28;20558;-71
2024/02/17 12:37:22;;;;;;;59.77;6.80;;;;;;;;;;5072919;28;21009;-70
2024/02/17 12:39:49;;;;;;;60.57;7.20;;;;;;;;;;5072750;28;20448;-71
2024/02/17 12:42:18;;;;;;;61.20;6.10;;;;;;;;;;5072651;28;20461;-72
2024/02/17 12:44:51;;;;;;;60.50;6.23;;;;;;;;;;5073422;28;20829;-72
2024/02/17 12:47:21;;;;;;;62.33;7.83;;;;;;;;;;5073753;28;20550;-71
2024/02/17 12:49:48;;;;;;;64.30;9.00;;;;;;;;;;5073285;28;20490;-70
2024/02/17 12:52:19;;;;;;;60.90;7.43;;;;;;;;;;5073150;28;20447;-70
2024/02/17 12:54:46;;;;;;;62.30;8.60;;;;;;;;;;5073349;28;20447;-70
2024/02/17 12:57:13;;;;;;;65.37;9.60;;;;;;;;;;5072888;28;20483;-70
2024/02/17 12:59:42;;;;;;;62.40;9.37;;;;;;;;;;5073598;28;20452;-71
2024/02/17 13:02:09;;;;;;;60.97;8.10;;;;;;;;;;5073459;28;20458;-70
2024/02/17 13:04:36;;;;;;;60.23;7.53;;;;;;;;;;5073238;28;20447;-70
2024/02/17 13:07:03;;;;;;;62.67;8.70;;;;;;;;;;5073579;28;20808;-70
2024/02/17 13:09:31;;;;;;;60.20;6.80;;;;;;;;;;5073419;28;20447;-70
2024/02/17 13:11:58;;;;;;;61.30;7.47;;;;;;;;;;5073464;28;20489;-69
2024/02/17 13:14:25;;;;;;;64.67;7.47;;;;;;;;;;5073120;28;20950;-70
2024/02/17 13:16:53;;;;;;;60.00;7.20;;;;;;;;;;5073529;28;20483;-69
2024/02/17 13:19:20;;;;;;;62.47;7.47;;;;;;;;;;5073183;28;20444;-70
2024/02/17 13:21:48;;;;;;;62.00;7.20;;;;;;;;;;5065963;28;20949;-70
2024/02/17 13:24:15;;;;;;;63.73;6.87;;;;;;;;;;5053156;28;20451;-70
2024/02/17 13:26:42;;;;;;;61.50;7.37;;;;;;;;;;5052853;28;20478;-70
2024/02/17 13:29:09;;;;;;;61.77;7.90;;;;;;;;;;5052709;28;20459;-70
2024/02/17 13:31:36;;;;;;;61.40;7.60;;;;;;;;;;5052848;28;20945;-69
2024/02/17 13:34:04;;;;;;;64.40;6.80;;;;;;;;;;5052585;28;20457;-70
2024/02/17 13:36:31;;;;;;;60.00;7.37;;;;;;;;;;5052644;28;20500;-71
2024/02/17 13:38:58;;;;;;;63.03;6.23;;;;;;;;;;5052699;28;20449;-71
2024/02/17 13:41:26;;;;;;;60.80;7.30;;;;;;;;;;5064731;28;20817;-70
2024/02/17 13:43:53;;;;;;;59.10;6.13;;;;;;;;;;5072610;28;20539;-70
2024/02/17 13:46:20;;;;;;;58.33;5.97;;;;;;;;;;5072158;28;20997;-71
2024/02/17 13:48:47;;;;;;;60.37;6.67;;;;;;;;;;5072368;28;20443;-71
2024/02/17 13:51:16;;;;;;;60.10;7.00;;;;;;;;;;5072095;28;20534;-71
2024/02/17 13:53:44;;;;;;;61.60;6.63;;;;;;;;;;5071944;28;20987;-71
2024/02/17 13:56:12;;;;;;;59.70;7.23;;;;;;;;;;5071991;28;20467;-71
2024/02/17 13:58:39;;;;;;;60.03;8.07;;;;;;;;;;5071979;28;20856;-71
2024/02/17 14:01:06;;;;;;;59.47;6.80;;;;;;;;;;5071827;28;20466;-72
2024/02/17 14:03:33;;;;;;;62.33;6.67;;;;;;;;;;5072038;28;20448;-71
2024/02/17 14:06:00;;;;;;;60.70;7.13;;;;;;;;;;5072715;28;20470;-72
2024/02/17 14:08:29;;;;;;;59.70;5.90;;;;;;;;;;5065778;28;20446;-71
2024/02/17 14:10:56;;;;;;;60.60;5.47;;;;;;;;;;5076426;28;20440;-71
2024/02/17 14:13:23;;;;;;;60.50;5.60;;;;;;;;;;5076180;28;20436;-71
2024/02/17 14:15:50;;;;;;;59.00;5.50;;;;;;;;;;5076315;28;20459;-71
2024/02/17 14:18:18;;;;;;;59.80;5.97;;;;;;;;;;5076012;28;21037;-71
2024/02/17 14:20:45;;;;;;;59.17;5.30;;;;;;;;;;5076026;28;20460;-71
2024/02/17 14:23:12;;;;;;;60.40;5.57;;;;;;;;;;5075828;28;20451;-71
2024/02/17 14:25:41;;;;;;;64.87;6.40;;;;;;;;;;5076467;28;20530;-71